sensor_id;sensor_type;location;lat;lon;timestamp;pressure;altitude;pressure_sealevel;temperature;humidity
62849;BME280;48941;49.516;8.286;2023-09-07T00:00:19;100715.97;;;18.50;79.64
62849;BME280;48941;49.516;8.286;2023-09-07T00:02:46;100716.13;;;18.49;79.42
62849;BME280;48941;49.516;8.286;2023-09-07T00:05:16;100711.41;;;18.43;80.01
62849;BME280;48941;49.516;8.286;2023-09-07T00:07:43;100721.50;;;18.41;79.72
62849;BME280;48941;49.516;8.286;2023-09-07T00:10:11;100717.31;;;18.38;79.74
62849;BME280;48941;49.516;8.286;2023-09-07T00:12:40;100720.50;;;18.34;79.97
62849;BME280;48941;49.516;8.286;2023-09-07T00:15:09;100719.16;;;18.29;79.96
62849;BME280;48941;49.516;8.286;2023-09-07T00:17:37;100718.97;;;18.31;80.13
62849;BME280;48941;49.516;8.286;2023-09-07T00:20:05;100721.84;;;18.29;79.99
62849;BME280;48941;49.516;8.286;2023-09-07T00:22:39;100716.59;;;18.28;80.20
62849;BME280;48941;49.516;8.286;2023-09-07T00:25:07;100716.44;;;18.21;80.53
62849;BME280;48941;49.516;8.286;2023-09-07T00:27:36;100713.88;;;18.11;81.10
62849;BME280;48941;49.516;8.286;2023-09-07T00:30:04;100709.63;;;18.09;81.55
62849;BME280;48941;49.516;8.286;2023-09-07T00:32:33;100713.19;;;18.09;81.47
62849;BME280;48941;49.516;8.286;2023-09-07T00:35:01;100713.50;;;18.06;81.28
62849;BME280;48941;49.516;8.286;2023-09-07T00:37:28;100713.84;;;18.03;81.72
62849;BME280;48941;49.516;8.286;2023-09-07T00:39:58;100715.00;;;18.01;81.42
62849;BME280;48941;49.516;8.286;2023-09-07T00:42:26;100713.50;;;17.98;81.64
62849;BME280;48941;49.516;8.286;2023-09-07T00:44:54;100719.03;;;17.97;81.77
62849;BME280;48941;49.516;8.286;2023-09-07T00:47:21;100711.78;;;17.97;81.51
62849;BME280;48941;49.516;8.286;2023-09-07T00:49:50;100708.25;;;17.97;81.85
62849;BME280;48941;49.516;8.286;2023-09-07T00:52:18;100707.28;;;17.98;81.64
62849;BME280;48941;49.516;8.286;2023-09-07T00:54:46;100702.72;;;17.98;81.77
62849;BME280;48941;49.516;8.286;2023-09-07T00:57:16;100703.09;;;18.03;81.59
62849;BME280;48941;49.516;8.286;2023-09-07T00:59:43;100707.13;;;18.07;80.77
62849;BME280;48941;49.516;8.286;2023-09-07T01:02:11;100704.25;;;18.09;81.14
62849;BME280;48941;49.516;8.286;2023-09-07T01:04:39;100697.03;;;18.09;81.13
62849;BME280;48941;49.516;8.286;2023-09-07T01:07:14;100693.00;;;18.14;80.62
62849;BME280;48941;49.516;8.286;2023-09-07T01:09:47;100703.59;;;18.15;80.80
62849;BME280;48941;49.516;8.286;2023-09-07T01:12:17;100697.03;;;18.18;80.24
62849;BME280;48941;49.516;8.286;2023-09-07T01:14:46;100703.44;;;18.17;79.99
62849;BME280;48941;49.516;8.286;2023-09-07T01:17:14;100702.91;;;18.13;80.08
62849;BME280;48941;49.516;8.286;2023-09-07T01:19:42;100696.69;;;18.13;80.00
62849;BME280;48941;49.516;8.286;2023-09-07T01:22:13;100696.16;;;18.09;80.58
62849;BME280;48941;49.516;8.286;2023-09-07T01:24:41;100699.53;;;18.11;79.94
62849;BME280;48941;49.516;8.286;2023-09-07T01:27:10;100703.25;;;18.10;79.89
62849;BME280;48941;49.516;8.286;2023-09-07T01:29:40;100705.28;;;18.08;80.29
62849;BME280;48941;49.516;8.286;2023-09-07T01:32:07;100706.91;;;18.01;80.18
62849;BME280;48941;49.516;8.286;2023-09-07T01:34:37;100700.84;;;17.99;80.07
62849;BME280;48941;49.516;8.286;2023-09-07T01:37:07;100704.38;;;17.99;80.53
62849;BME280;48941;49.516;8.286;2023-09-07T01:39:36;100703.72;;;17.97;80.29
62849;BME280;48941;49.516;8.286;2023-09-07T01:42:04;100705.91;;;17.94;80.72
62849;BME280;48941;49.516;8.286;2023-09-07T01:44:32;100703.53;;;17.90;80.99
62849;BME280;48941;49.516;8.286;2023-09-07T01:47:00;100700.69;;;17.92;80.59
62849;BME280;48941;49.516;8.286;2023-09-07T01:49:28;100694.44;;;17.91;80.54
62849;BME280;48941;49.516;8.286;2023-09-07T01:51:56;100698.66;;;17.94;80.65
62849;BME280;48941;49.516;8.286;2023-09-07T01:54:24;100705.91;;;17.94;80.39
62849;BME280;48941;49.516;8.286;2023-09-07T01:56:53;100697.81;;;17.94;80.58
62849;BME280;48941;49.516;8.286;2023-09-07T01:59:21;100701.84;;;17.89;80.79
62849;BME280;48941;49.516;8.286;2023-09-07T02:01:49;100702.34;;;17.93;80.53
62849;BME280;48941;49.516;8.286;2023-09-07T02:04:17;100703.91;;;17.96;79.96
62849;BME280;48941;49.516;8.286;2023-09-07T02:06:45;100693.28;;;17.94;80.31
62849;BME280;48941;49.516;8.286;2023-09-07T02:09:12;100698.28;;;17.89;80.46
62849;BME280;48941;49.516;8.286;2023-09-07T02:11:40;100694.44;;;17.83;80.64
62849;BME280;48941;49.516;8.286;2023-09-07T02:14:09;100683.66;;;17.83;80.53
62849;BME280;48941;49.516;8.286;2023-09-07T02:16:37;100688.63;;;17.78;80.75
62849;BME280;48941;49.516;8.286;2023-09-07T02:19:05;100685.56;;;17.73;80.92
62849;BME280;48941;49.516;8.286;2023-09-07T02:21:33;100686.22;;;17.67;80.98
62849;BME280;48941;49.516;8.286;2023-09-07T02:24:01;100692.47;;;17.67;81.28
62849;BME280;48941;49.516;8.286;2023-09-07T02:26:29;100689.72;;;17.59;81.18
62849;BME280;48941;49.516;8.286;2023-09-07T02:28:57;100695.09;;;17.59;80.89
62849;BME280;48941;49.516;8.286;2023-09-07T02:31:26;100690.38;;;17.53;81.30
62849;BME280;48941;49.516;8.286;2023-09-07T02:33:54;100694.72;;;17.46;81.29
62849;BME280;48941;49.516;8.286;2023-09-07T02:36:22;100694.03;;;17.44;81.18
62849;BME280;48941;49.516;8.286;2023-09-07T02:38:50;100696.22;;;17.40;81.65
62849;BME280;48941;49.516;8.286;2023-09-07T02:41:18;100696.34;;;17.39;81.64
62849;BME280;48941;49.516;8.286;2023-09-07T02:43:46;100690.28;;;17.37;81.55
62849;BME280;48941;49.516;8.286;2023-09-07T02:46:13;100687.75;;;17.35;81.64
62849;BME280;48941;49.516;8.286;2023-09-07T02:48:44;100685.59;;;17.39;81.41
62849;BME280;48941;49.516;8.286;2023-09-07T02:51:12;100685.06;;;17.35;81.44
62849;BME280;48941;49.516;8.286;2023-09-07T02:53:40;100686.72;;;17.28;82.29
62849;BME280;48941;49.516;8.286;2023-09-07T02:56:08;100687.84;;;17.25;82.09
62849;BME280;48941;49.516;8.286;2023-09-07T02:58:37;100683.50;;;17.24;81.79
62849;BME280;48941;49.516;8.286;2023-09-07T03:01:06;100681.97;;;17.22;81.65
62849;BME280;48941;49.516;8.286;2023-09-07T03:03:35;100684.81;;;17.20;81.58
62849;BME280;48941;49.516;8.286;2023-09-07T03:06:12;100683.31;;;17.18;81.71
62849;BME280;48941;49.516;8.286;2023-09-07T03:08:40;100681.59;;;17.17;81.66
62849;BME280;48941;49.516;8.286;2023-09-07T03:11:08;100684.44;;;17.15;81.78
62849;BME280;48941;49.516;8.286;2023-09-07T03:13:36;100684.94;;;17.10;81.74
62849;BME280;48941;49.516;8.286;2023-09-07T03:16:05;100682.22;;;17.10;82.01
62849;BME280;48941;49.516;8.286;2023-09-07T03:18:33;100682.91;;;17.12;81.89
62849;BME280;48941;49.516;8.286;2023-09-07T03:21:02;100675.69;;;17.13;81.85
62849;BME280;48941;49.516;8.286;2023-09-07T03:23:32;100677.69;;;17.11;81.91
62849;BME280;48941;49.516;8.286;2023-09-07T03:26:00;100679.88;;;17.07;82.05
62849;BME280;48941;49.516;8.286;2023-09-07T03:28:28;100679.50;;;17.02;82.67
62849;BME280;48941;49.516;8.286;2023-09-07T03:30:56;100689.22;;;17.03;82.19
62849;BME280;48941;49.516;8.286;2023-09-07T03:33:24;100683.66;;;16.97;82.53
62849;BME280;48941;49.516;8.286;2023-09-07T03:35:52;100679.44;;;16.94;82.46
62849;BME280;48941;49.516;8.286;2023-09-07T03:38:24;100686.97;;;16.90;82.94
62849;BME280;48941;49.516;8.286;2023-09-07T03:40:54;100682.28;;;16.92;82.87
62849;BME280;48941;49.516;8.286;2023-09-07T03:43:22;100679.19;;;16.87;82.56
62849;BME280;48941;49.516;8.286;2023-09-07T03:45:49;100683.91;;;16.85;82.74
62849;BME280;48941;49.516;8.286;2023-09-07T03:48:17;100684.22;;;16.82;83.01
62849;BME280;48941;49.516;8.286;2023-09-07T03:50:47;100691.03;;;16.77;83.32
62849;BME280;48941;49.516;8.286;2023-09-07T03:53:14;100687.13;;;16.71;83.29
62849;BME280;48941;49.516;8.286;2023-09-07T03:55:44;100691.13;;;16.67;83.45
62849;BME280;48941;49.516;8.286;2023-09-07T03:58:13;100694.19;;;16.72;83.24
62849;BME280;48941;49.516;8.286;2023-09-07T04:00:41;100690.69;;;16.71;83.49
62849;BME280;48941;49.516;8.286;2023-09-07T04:03:09;100692.44;;;16.63;83.63
62849;BME280;48941;49.516;8.286;2023-09-07T04:05:37;100699.19;;;16.67;83.30
62849;BME280;48941;49.516;8.286;2023-09-07T04:08:06;100696.34;;;16.68;82.99
62849;BME280;48941;49.516;8.286;2023-09-07T04:10:36;100694.34;;;16.70;82.74
62849;BME280;48941;49.516;8.286;2023-09-07T04:13:04;100702.34;;;16.62;83.32
62849;BME280;48941;49.516;8.286;2023-09-07T04:15:33;100694.75;;;16.58;83.12
62849;BME280;48941;49.516;8.286;2023-09-07T04:18:03;100697.06;;;16.52;83.36
62849;BME280;48941;49.516;8.286;2023-09-07T04:20:31;100703.19;;;16.45;83.57
62849;BME280;48941;49.516;8.286;2023-09-07T04:22:58;100699.53;;;16.46;83.84
62849;BME280;48941;49.516;8.286;2023-09-07T04:25:26;100698.66;;;16.45;83.78
62849;BME280;48941;49.516;8.286;2023-09-07T04:27:54;100701.53;;;16.44;84.07
62849;BME280;48941;49.516;8.286;2023-09-07T04:30:23;100701.28;;;16.37;84.32
62849;BME280;48941;49.516;8.286;2023-09-07T04:32:52;100704.44;;;16.32;84.45
62849;BME280;48941;49.516;8.286;2023-09-07T04:35:20;100702.03;;;16.29;84.37
62849;BME280;48941;49.516;8.286;2023-09-07T04:37:48;100708.72;;;16.25;84.51
62849;BME280;48941;49.516;8.286;2023-09-07T04:40:16;100702.34;;;16.26;84.53
62849;BME280;48941;49.516;8.286;2023-09-07T04:42:44;100714.63;;;16.29;84.47
62849;BME280;48941;49.516;8.286;2023-09-07T04:45:12;100723.72;;;16.28;83.84
62849;BME280;48941;49.516;8.286;2023-09-07T04:47:40;100715.78;;;16.26;84.09
62849;BME280;48941;49.516;8.286;2023-09-07T04:50:10;100711.72;;;16.22;84.22
62849;BME280;48941;49.516;8.286;2023-09-07T04:52:37;100709.16;;;16.21;84.22
62849;BME280;48941;49.516;8.286;2023-09-07T04:55:06;100707.38;;;16.11;84.26
62849;BME280;48941;49.516;8.286;2023-09-07T04:57:36;100707.56;;;16.10;84.77
62849;BME280;48941;49.516;8.286;2023-09-07T05:00:05;100713.91;;;16.09;84.72
62849;BME280;48941;49.516;8.286;2023-09-07T05:02:33;100713.69;;;16.02;84.56
62849;BME280;48941;49.516;8.286;2023-09-07T05:05:05;100712.03;;;15.91;85.15
62849;BME280;48941;49.516;8.286;2023-09-07T05:07:34;100713.03;;;15.90;84.92
62849;BME280;48941;49.516;8.286;2023-09-07T05:10:02;100710.34;;;15.90;85.25
62849;BME280;48941;49.516;8.286;2023-09-07T05:12:30;100705.44;;;15.86;84.83
62849;BME280;48941;49.516;8.286;2023-09-07T05:14:58;100712.81;;;15.84;85.21
62849;BME280;48941;49.516;8.286;2023-09-07T05:17:27;100715.91;;;15.79;85.47
62849;BME280;48941;49.516;8.286;2023-09-07T05:19:54;100712.53;;;15.77;85.37
62849;BME280;48941;49.516;8.286;2023-09-07T05:22:22;100718.22;;;15.74;85.16
62849;BME280;48941;49.516;8.286;2023-09-07T05:24:51;100717.91;;;15.77;85.60
62849;BME280;48941;49.516;8.286;2023-09-07T05:27:19;100722.16;;;15.80;84.77
62849;BME280;48941;49.516;8.286;2023-09-07T05:29:47;100730.91;;;15.82;84.66
62849;BME280;48941;49.516;8.286;2023-09-07T05:32:15;100729.34;;;15.79;84.61
62849;BME280;48941;49.516;8.286;2023-09-07T05:34:42;100733.03;;;15.78;85.31
62849;BME280;48941;49.516;8.286;2023-09-07T05:37:10;100737.13;;;15.82;85.27
62849;BME280;48941;49.516;8.286;2023-09-07T05:39:38;100735.50;;;15.89;84.98
62849;BME280;48941;49.516;8.286;2023-09-07T05:42:07;100734.94;;;15.96;85.66
62849;BME280;48941;49.516;8.286;2023-09-07T05:44:35;100731.78;;;16.00;85.55
62849;BME280;48941;49.516;8.286;2023-09-07T05:47:03;100737.53;;;16.05;85.68
62849;BME280;48941;49.516;8.286;2023-09-07T05:49:31;100738.66;;;16.12;85.61
62849;BME280;48941;49.516;8.286;2023-09-07T05:51:59;100741.28;;;16.22;85.70
62849;BME280;48941;49.516;8.286;2023-09-07T05:54:27;100739.50;;;16.31;86.13
62849;BME280;48941;49.516;8.286;2023-09-07T05:56:55;100744.81;;;16.41;85.94
62849;BME280;48941;49.516;8.286;2023-09-07T05:59:24;100737.16;;;16.46;86.23
62849;BME280;48941;49.516;8.286;2023-09-07T06:01:52;100744.28;;;16.55;86.35
62849;BME280;48941;49.516;8.286;2023-09-07T06:04:19;100743.53;;;16.63;85.91
62849;BME280;48941;49.516;8.286;2023-09-07T06:06:47;100743.59;;;16.71;86.13
62849;BME280;48941;49.516;8.286;2023-09-07T06:09:15;100747.38;;;16.78;86.36
62849;BME280;48941;49.516;8.286;2023-09-07T06:11:43;100741.25;;;16.86;86.52
62849;BME280;48941;49.516;8.286;2023-09-07T06:14:11;100752.78;;;16.96;86.70
62849;BME280;48941;49.516;8.286;2023-09-07T06:16:40;100751.13;;;17.03;86.65
62849;BME280;48941;49.516;8.286;2023-09-07T06:19:08;100745.97;;;17.10;86.58
62849;BME280;48941;49.516;8.286;2023-09-07T06:21:36;100747.91;;;17.18;86.24
62849;BME280;48941;49.516;8.286;2023-09-07T06:24:04;100751.19;;;17.29;86.63
62849;BME280;48941;49.516;8.286;2023-09-07T06:26:33;100749.53;;;17.37;86.44
62849;BME280;48941;49.516;8.286;2023-09-07T06:29:01;100752.25;;;17.45;85.99
62849;BME280;48941;49.516;8.286;2023-09-07T06:31:29;100748.28;;;17.57;86.07
62849;BME280;48941;49.516;8.286;2023-09-07T06:33:58;100752.03;;;17.64;85.90
62849;BME280;48941;49.516;8.286;2023-09-07T06:36:26;100757.16;;;17.76;85.38
62849;BME280;48941;49.516;8.286;2023-09-07T06:39:11;100748.81;;;17.87;84.95
62849;BME280;48941;49.516;8.286;2023-09-07T06:41:39;100754.91;;;17.97;84.53
62849;BME280;48941;49.516;8.286;2023-09-07T06:44:06;100756.97;;;18.03;83.41
62849;BME280;48941;49.516;8.286;2023-09-07T06:46:34;100763.38;;;18.10;83.43
62849;BME280;48941;49.516;8.286;2023-09-07T06:49:04;100759.88;;;18.18;82.93
62849;BME280;48941;49.516;8.286;2023-09-07T06:51:31;100767.84;;;18.28;82.42
62849;BME280;48941;49.516;8.286;2023-09-07T06:53:59;100772.22;;;18.37;82.42
62849;BME280;48941;49.516;8.286;2023-09-07T06:56:27;100769.22;;;18.48;81.93
62849;BME280;48941;49.516;8.286;2023-09-07T06:58:56;100773.97;;;18.63;81.55
62849;BME280;48941;49.516;8.286;2023-09-07T07:01:24;100768.78;;;18.78;80.95
62849;BME280;48941;49.516;8.286;2023-09-07T07:03:52;100776.91;;;18.94;79.93
62849;BME280;48941;49.516;8.286;2023-09-07T07:06:22;100775.72;;;19.13;80.15
62849;BME280;48941;49.516;8.286;2023-09-07T07:08:51;100777.91;;;19.34;79.30
62849;BME280;48941;49.516;8.286;2023-09-07T07:11:19;100768.59;;;19.53;78.33
62849;BME280;48941;49.516;8.286;2023-09-07T07:13:47;100776.66;;;19.69;77.25
62849;BME280;48941;49.516;8.286;2023-09-07T07:16:16;100784.41;;;19.89;76.55
62849;BME280;48941;49.516;8.286;2023-09-07T07:18:44;100786.66;;;20.08;76.02
62849;BME280;48941;49.516;8.286;2023-09-07T07:21:12;100789.13;;;20.26;75.48
62849;BME280;48941;49.516;8.286;2023-09-07T07:23:41;100779.72;;;20.45;74.27
62849;BME280;48941;49.516;8.286;2023-09-07T07:26:08;100782.84;;;20.65;72.61
62849;BME280;48941;49.516;8.286;2023-09-07T07:28:36;100779.47;;;20.86;71.96
62849;BME280;48941;49.516;8.286;2023-09-07T07:31:07;100777.97;;;21.07;70.79
62849;BME280;48941;49.516;8.286;2023-09-07T07:33:36;100778.97;;;21.29;69.55
62849;BME280;48941;49.516;8.286;2023-09-07T07:36:04;100780.78;;;21.52;68.88
62849;BME280;48941;49.516;8.286;2023-09-07T07:38:33;100782.50;;;21.67;68.43
62849;BME280;48941;49.516;8.286;2023-09-07T07:41:03;100775.28;;;21.90;67.12
62849;BME280;48941;49.516;8.286;2023-09-07T07:43:32;100774.50;;;22.11;66.36
62849;BME280;48941;49.516;8.286;2023-09-07T07:46:00;100775.53;;;22.24;64.84
62849;BME280;48941;49.516;8.286;2023-09-07T07:48:28;100777.84;;;22.42;64.41
62849;BME280;48941;49.516;8.286;2023-09-07T07:50:57;100780.13;;;22.60;63.85
62849;BME280;48941;49.516;8.286;2023-09-07T07:53:24;100776.72;;;22.73;63.08
62849;BME280;48941;49.516;8.286;2023-09-07T07:55:52;100780.22;;;22.89;61.79
62849;BME280;48941;49.516;8.286;2023-09-07T07:58:23;100782.28;;;23.08;61.25
62849;BME280;48941;49.516;8.286;2023-09-07T08:00:51;100788.88;;;23.20;60.42
62849;BME280;48941;49.516;8.286;2023-09-07T08:03:19;100782.56;;;23.41;59.92
62849;BME280;48941;49.516;8.286;2023-09-07T08:05:47;100785.38;;;23.55;58.93
62849;BME280;48941;49.516;8.286;2023-09-07T08:08:16;100780.88;;;23.69;56.75
62849;BME280;48941;49.516;8.286;2023-09-07T08:10:44;100783.94;;;23.87;56.88
62849;BME280;48941;49.516;8.286;2023-09-07T08:13:12;100781.03;;;23.89;57.18
62849;BME280;48941;49.516;8.286;2023-09-07T08:15:42;100788.03;;;24.18;56.02
62849;BME280;48941;49.516;8.286;2023-09-07T08:18:10;100779.31;;;24.29;54.54
62849;BME280;48941;49.516;8.286;2023-09-07T08:20:38;100783.34;;;24.47;54.52
62849;BME280;48941;49.516;8.286;2023-09-07T08:23:08;100779.44;;;24.62;53.79
62849;BME280;48941;49.516;8.286;2023-09-07T08:25:37;100783.03;;;24.76;52.72
62849;BME280;48941;49.516;8.286;2023-09-07T08:28:06;100776.13;;;24.94;51.74
62849;BME280;48941;49.516;8.286;2023-09-07T08:30:34;100779.72;;;25.14;51.32
62849;BME280;48941;49.516;8.286;2023-09-07T08:33:04;100779.50;;;25.36;51.10
62849;BME280;48941;49.516;8.286;2023-09-07T08:35:33;100781.59;;;25.54;50.17
62849;BME280;48941;49.516;8.286;2023-09-07T08:38:02;100781.56;;;25.67;49.26
62849;BME280;48941;49.516;8.286;2023-09-07T08:40:35;100782.78;;;25.84;48.92
62849;BME280;48941;49.516;8.286;2023-09-07T08:43:04;100780.88;;;25.98;48.80
62849;BME280;48941;49.516;8.286;2023-09-07T08:45:36;100777.66;;;26.15;48.52
62849;BME280;48941;49.516;8.286;2023-09-07T08:48:08;100781.19;;;26.29;48.01
62849;BME280;48941;49.516;8.286;2023-09-07T08:50:38;100784.03;;;26.47;47.32
62849;BME280;48941;49.516;8.286;2023-09-07T08:53:07;100780.25;;;26.48;46.91
62849;BME280;48941;49.516;8.286;2023-09-07T08:55:35;100784.38;;;26.57;46.74
62849;BME280;48941;49.516;8.286;2023-09-07T08:58:03;100772.94;;;26.80;46.39
62849;BME280;48941;49.516;8.286;2023-09-07T09:00:31;100778.03;;;27.02;45.94
62849;BME280;48941;49.516;8.286;2023-09-07T09:02:59;100782.31;;;27.16;46.11
62849;BME280;48941;49.516;8.286;2023-09-07T09:05:28;100778.66;;;27.29;44.74
62849;BME280;48941;49.516;8.286;2023-09-07T09:08:01;100773.13;;;27.36;45.28
62849;BME280;48941;49.516;8.286;2023-09-07T09:10:29;100776.03;;;27.41;44.88
62849;BME280;48941;49.516;8.286;2023-09-07T09:12:58;100778.38;;;27.37;44.50
62849;BME280;48941;49.516;8.286;2023-09-07T09:15:26;100773.78;;;27.56;44.92
62849;BME280;48941;49.516;8.286;2023-09-07T09:17:54;100778.03;;;27.71;44.18
62849;BME280;48941;49.516;8.286;2023-09-07T09:20:23;100774.16;;;27.78;43.80
62849;BME280;48941;49.516;8.286;2023-09-07T09:22:54;100777.75;;;27.97;43.39
62849;BME280;48941;49.516;8.286;2023-09-07T09:25:22;100770.75;;;28.20;42.50
62849;BME280;48941;49.516;8.286;2023-09-07T09:27:50;100768.47;;;28.47;41.33
62849;BME280;48941;49.516;8.286;2023-09-07T09:30:18;100774.03;;;28.59;41.47
62849;BME280;48941;49.516;8.286;2023-09-07T09:32:46;100757.63;;;28.71;41.29
62849;BME280;48941;49.516;8.286;2023-09-07T09:35:16;100757.06;;;28.80;40.64
62849;BME280;48941;49.516;8.286;2023-09-07T09:37:45;100753.25;;;28.82;40.52
62849;BME280;48941;49.516;8.286;2023-09-07T09:40:15;100758.41;;;28.90;40.33
62849;BME280;48941;49.516;8.286;2023-09-07T09:42:44;100748.03;;;29.04;40.16
62849;BME280;48941;49.516;8.286;2023-09-07T09:45:12;100750.00;;;29.15;39.98
62849;BME280;48941;49.516;8.286;2023-09-07T09:47:41;100750.13;;;29.20;39.53
62849;BME280;48941;49.516;8.286;2023-09-07T09:50:10;100747.97;;;29.34;39.40
62849;BME280;48941;49.516;8.286;2023-09-07T09:52:39;100743.19;;;29.53;38.78
62849;BME280;48941;49.516;8.286;2023-09-07T09:55:07;100742.81;;;29.61;38.89
62849;BME280;48941;49.516;8.286;2023-09-07T09:57:41;100739.00;;;29.74;38.50
62849;BME280;48941;49.516;8.286;2023-09-07T10:00:09;100739.59;;;29.76;38.55
62849;BME280;48941;49.516;8.286;2023-09-07T10:02:51;100731.47;;;29.81;38.94
62849;BME280;48941;49.516;8.286;2023-09-07T10:05:22;100726.31;;;29.85;38.31
62849;BME280;48941;49.516;8.286;2023-09-07T10:07:52;100729.88;;;29.97;38.31
62849;BME280;48941;49.516;8.286;2023-09-07T10:10:21;100727.31;;;30.07;37.95
62849;BME280;48941;49.516;8.286;2023-09-07T10:12:52;100721.13;;;30.12;38.04
62849;BME280;48941;49.516;8.286;2023-09-07T10:15:22;100721.72;;;30.14;38.63
62849;BME280;48941;49.516;8.286;2023-09-07T10:17:50;100717.47;;;30.23;38.46
62849;BME280;48941;49.516;8.286;2023-09-07T10:20:34;100718.63;;;30.39;37.65
62849;BME280;48941;49.516;8.286;2023-09-07T10:23:03;100720.41;;;30.62;38.05
62849;BME280;48941;49.516;8.286;2023-09-07T10:25:31;100721.25;;;30.63;36.98
62849;BME280;48941;49.516;8.286;2023-09-07T10:28:00;100713.75;;;30.75;37.52
62849;BME280;48941;49.516;8.286;2023-09-07T10:30:29;100719.16;;;30.87;37.21
62849;BME280;48941;49.516;8.286;2023-09-07T10:32:59;100708.69;;;31.01;36.97
62849;BME280;48941;49.516;8.286;2023-09-07T10:35:27;100708.53;;;31.07;36.99
62849;BME280;48941;49.516;8.286;2023-09-07T10:37:56;100712.38;;;31.06;36.96
62849;BME280;48941;49.516;8.286;2023-09-07T10:40:24;100706.69;;;31.13;36.74
62849;BME280;48941;49.516;8.286;2023-09-07T10:43:02;100705.75;;;31.07;36.62
62849;BME280;48941;49.516;8.286;2023-09-07T10:45:31;100702.38;;;31.00;36.75
62849;BME280;48941;49.516;8.286;2023-09-07T10:47:58;100705.47;;;31.04;37.22
62849;BME280;48941;49.516;8.286;2023-09-07T10:50:26;100708.59;;;31.12;36.47
62849;BME280;48941;49.516;8.286;2023-09-07T10:52:54;100697.59;;;31.12;36.51
62849;BME280;48941;49.516;8.286;2023-09-07T10:55:22;100702.44;;;31.22;36.25
62849;BME280;48941;49.516;8.286;2023-09-07T10:57:50;100701.38;;;31.45;36.10
62849;BME280;48941;49.516;8.286;2023-09-07T11:00:19;100706.78;;;31.57;35.47
62849;BME280;48941;49.516;8.286;2023-09-07T11:02:47;100697.00;;;31.66;35.29
62849;BME280;48941;49.516;8.286;2023-09-07T11:05:15;100700.53;;;31.84;35.18
62849;BME280;48941;49.516;8.286;2023-09-07T11:07:44;100696.91;;;32.05;34.46
62849;BME280;48941;49.516;8.286;2023-09-07T11:10:12;100688.81;;;31.93;34.25
62849;BME280;48941;49.516;8.286;2023-09-07T11:12:40;100689.63;;;31.94;34.52
62849;BME280;48941;49.516;8.286;2023-09-07T11:15:09;100690.84;;;32.03;35.14
62849;BME280;48941;49.516;8.286;2023-09-07T11:17:39;100676.63;;;32.11;34.59
62849;BME280;48941;49.516;8.286;2023-09-07T11:20:07;100684.25;;;32.04;34.59
62849;BME280;48941;49.516;8.286;2023-09-07T11:22:36;100673.34;;;31.92;34.92
62849;BME280;48941;49.516;8.286;2023-09-07T11:25:24;100674.88;;;32.05;33.62
62849;BME280;48941;49.516;8.286;2023-09-07T11:27:52;100678.91;;;32.20;34.23
62849;BME280;48941;49.516;8.286;2023-09-07T11:30:21;100672.47;;;32.41;33.53
62849;BME280;48941;49.516;8.286;2023-09-07T11:33:00;100665.66;;;32.49;33.51
62849;BME280;48941;49.516;8.286;2023-09-07T11:35:28;100671.66;;;32.41;33.33
62849;BME280;48941;49.516;8.286;2023-09-07T11:37:56;100671.06;;;32.33;33.71
62849;BME280;48941;49.516;8.286;2023-09-07T11:40:23;100668.34;;;32.66;33.26
62849;BME280;48941;49.516;8.286;2023-09-07T11:42:52;100666.53;;;32.87;33.28
62849;BME280;48941;49.516;8.286;2023-09-07T11:45:20;100666.09;;;33.00;32.96
62849;BME280;48941;49.516;8.286;2023-09-07T11:47:48;100671.19;;;33.19;32.34
62849;BME280;48941;49.516;8.286;2023-09-07T11:50:17;100662.63;;;33.15;31.86
62849;BME280;48941;49.516;8.286;2023-09-07T11:52:45;100659.69;;;33.32;32.57
62849;BME280;48941;49.516;8.286;2023-09-07T11:55:14;100668.31;;;33.51;32.07
62849;BME280;48941;49.516;8.286;2023-09-07T11:57:42;100668.72;;;33.70;31.83
62849;BME280;48941;49.516;8.286;2023-09-07T12:00:11;100668.72;;;33.70;31.46
62849;BME280;48941;49.516;8.286;2023-09-07T12:02:40;100654.09;;;33.69;31.47
62849;BME280;48941;49.516;8.286;2023-09-07T12:05:08;100660.13;;;33.66;31.21
62849;BME280;48941;49.516;8.286;2023-09-07T12:07:38;100656.28;;;33.72;31.01
62849;BME280;48941;49.516;8.286;2023-09-07T12:10:07;100651.09;;;33.91;31.09
62849;BME280;48941;49.516;8.286;2023-09-07T12:12:36;100650.28;;;34.06;31.38
62849;BME280;48941;49.516;8.286;2023-09-07T12:15:05;100641.72;;;34.03;31.13
62849;BME280;48941;49.516;8.286;2023-09-07T12:17:33;100642.50;;;33.83;31.37
62849;BME280;48941;49.516;8.286;2023-09-07T12:20:01;100645.28;;;33.88;31.37
62849;BME280;48941;49.516;8.286;2023-09-07T12:22:29;100632.13;;;34.16;31.01
62849;BME280;48941;49.516;8.286;2023-09-07T12:25:00;100636.00;;;34.40;30.90
62849;BME280;48941;49.516;8.286;2023-09-07T12:27:45;100632.94;;;34.37;30.72
62849;BME280;48941;49.516;8.286;2023-09-07T12:30:18;100629.91;;;34.43;30.50
62849;BME280;48941;49.516;8.286;2023-09-07T12:32:47;100623.28;;;34.44;30.85
62849;BME280;48941;49.516;8.286;2023-09-07T12:35:17;100625.19;;;34.28;30.81
62849;BME280;48941;49.516;8.286;2023-09-07T12:37:46;100618.03;;;34.27;31.06
62849;BME280;48941;49.516;8.286;2023-09-07T12:40:15;100617.47;;;34.20;31.01
62849;BME280;48941;49.516;8.286;2023-09-07T12:42:44;100619.66;;;34.18;30.71
62849;BME280;48941;49.516;8.286;2023-09-07T12:45:13;100622.72;;;34.22;30.70
62849;BME280;48941;49.516;8.286;2023-09-07T12:47:42;100619.41;;;34.35;30.42
62849;BME280;48941;49.516;8.286;2023-09-07T12:50:09;100620.78;;;34.27;31.02
62849;BME280;48941;49.516;8.286;2023-09-07T12:52:37;100623.56;;;34.27;30.74
62849;BME280;48941;49.516;8.286;2023-09-07T12:55:06;100623.53;;;34.22;30.27
62849;BME280;48941;49.516;8.286;2023-09-07T12:57:35;100614.72;;;34.25;30.94